createdAt,value
2018-04-29T00:28:39.828Z,13.14
2018-04-29T00:38:36.014Z,12.93
2018-04-29T01:08:35.996Z,12.41
2018-04-29T01:38:35.997Z,11.8
2018-04-29T01:58:36.469Z,11.62
2018-04-29T02:08:36.048Z,11.29
2018-04-29T02:28:36.084Z,10.73
2018-04-29T02:48:36.087Z,10.46
2018-04-29T02:58:36.091Z,10.03
2018-04-29T03:18:36.102Z,9.48
2018-04-29T03:48:36.150Z,8.81
2018-04-29T03:58:36.116Z,8.66
2018-04-29T04:18:36.164Z,8.72
2018-04-29T04:28:53.815Z,8.73
2018-04-29T04:38:36.186Z,9.16
2018-04-29T04:48:36.161Z,9.43
2018-04-29T04:58:36.165Z,9.61
2018-04-29T05:08:36.180Z,9.57
2018-04-29T05:28:43.728Z,9.91
2018-04-29T05:38:36.244Z,10.77
2018-04-29T05:48:36.255Z,11.52
2018-04-29T06:28:36.258Z,15.09
2018-04-29T06:38:36.295Z,15.82
2018-04-29T07:18:36.332Z,20.86
2018-04-29T07:28:36.415Z,27.13
2018-04-29T07:38:36.367Z,22.14
2018-04-29T07:58:36.343Z,18.72
2018-04-29T08:08:36.359Z,17.64
2018-04-29T08:18:36.366Z,17.18
2018-04-29T08:38:36.351Z,16.65
2018-04-29T08:48:41.779Z,16.52
2018-04-29T08:58:36.330Z,16.93
2018-04-29T09:28:36.416Z,17.88
2018-04-29T09:58:36.425Z,17.35
2018-04-29T10:18:36.423Z,17.63
2018-04-29T10:28:36.432Z,18.74
2018-04-29T10:38:36.412Z,19.38
2018-04-29T10:58:36.425Z,20.89
2018-04-29T11:08:36.421Z,21.32
2018-04-29T11:38:55.078Z,21.2
2018-04-29T11:48:36.487Z,21.78
2018-04-29T11:58:36.925Z,21.72
2018-04-29T12:08:36.592Z,22.32
2018-04-29T12:18:37.506Z,22.09
2018-04-29T12:28:36.624Z,22.44
2018-04-29T12:38:36.499Z,22.68
2018-04-29T12:48:48.181Z,23.27
2018-04-29T12:58:36.612Z,23.52
2018-04-29T13:08:36.506Z,23.57
2018-04-29T13:18:36.602Z,22.75
2018-04-29T13:28:36.602Z,23.07
2018-04-29T13:38:36.507Z,22.49
2018-04-29T13:48:36.519Z,22.72
2018-04-29T13:58:36.681Z,23.24
2018-04-29T14:08:36.477Z,23.22
2018-04-29T14:18:36.546Z,22.64
2018-04-29T14:28:36.617Z,23.19
2018-04-29T14:38:36.541Z,22.68
2018-04-29T14:48:36.527Z,23.01
2018-04-29T14:58:36.498Z,23.11
2018-04-29T15:08:37.774Z,23.01
2018-04-29T15:18:36.685Z,23.07
2018-04-29T15:28:36.520Z,23.09
2018-04-29T15:38:36.531Z,23.2
2018-04-29T15:48:36.569Z,22.59
2018-04-29T15:58:36.518Z,22.43
2018-04-29T16:08:37.220Z,21.94
2018-04-29T16:18:36.536Z,21.92
2018-04-29T16:28:36.532Z,21.83
2018-04-29T16:38:36.535Z,21.61
2018-04-29T16:48:36.529Z,21.3
2018-04-29T16:58:36.544Z,21.2
2018-04-29T17:08:36.594Z,20.81
2018-04-29T17:18:36.542Z,20.8
2018-04-29T17:28:36.669Z,20.65
2018-04-29T17:38:37.684Z,20.5
2018-04-29T17:48:36.642Z,20.42
2018-04-29T17:58:36.663Z,20.34
2018-04-29T18:08:36.546Z,20.38
2018-04-29T18:18:36.511Z,20.16
2018-04-29T18:28:36.599Z,19.83
2018-04-29T18:38:36.652Z,19.25
2018-04-29T18:48:36.627Z,18.83
2018-04-29T18:58:36.534Z,18.59
2018-04-29T19:08:36.533Z,18
2018-04-29T19:18:36.783Z,17.55
2018-04-29T19:28:36.594Z,17.2
2018-04-29T19:38:37.039Z,16.85
2018-04-29T19:48:36.552Z,16.81
2018-04-29T19:58:36.549Z,16.7
2018-04-29T20:08:36.692Z,16.49
2018-04-29T20:18:36.794Z,16.73
2018-04-29T20:28:36.707Z,16.56
2018-04-29T20:38:36.627Z,16.5
2018-04-29T20:48:36.552Z,16.38
2018-04-29T20:58:36.560Z,16.2
2018-04-29T21:08:37.491Z,16.27
2018-04-29T21:18:36.554Z,16.12
2018-04-29T21:28:36.641Z,16.15
2018-04-29T21:38:36.543Z,16.06
2018-04-29T21:48:36.859Z,16.15
2018-04-29T21:58:36.735Z,16.09
2018-04-29T22:08:36.541Z,16.12
2018-04-29T22:18:41.866Z,16.06
2018-04-29T22:28:36.561Z,16.09
2018-04-29T22:38:36.656Z,16.14
2018-04-29T22:48:36.656Z,15.94
2018-04-29T22:58:36.520Z,15.92
2018-04-29T23:08:36.515Z,15.68
2018-04-29T23:18:36.598Z,15.68
2018-04-29T23:28:36.574Z,15.81
2018-04-29T23:38:36.652Z,15.51
2018-04-29T23:48:36.532Z,15.28
2018-04-29T23:58:36.719Z,15.09
